UAL2348 KSFO-KDEN
Flight info
| Callsign | UAL2348 |
|---|---|
| Flight time | N/A |
| Altitude | 39000 |
| Route | TRUKN2 SYRAH Q128 JSICA LUDOH BUMMP SSKII3 |
| Aircraft | B763/H-SDE3FGHIM3RWXY/LB1 |
Departure
| Time | 2026-05-03 22:20 |
|---|---|
| Airport | San Francisco International Airport (KSFO) |
Arrival
| Time | N/A |
|---|---|
| Airport | Denver International Airport (KDEN) |
| Time | Latitude | Longitude | Altitude | Speed | Heading |
|---|---|---|---|---|---|
| 2026-05-03 22:01 | 37.61801 | -122.39036 | 24 ft | 0 kts | 209° |
| 2026-05-03 22:10 | 37.61805 | -122.39033 | 24 ft | 3 kts | 209° |
| 2026-05-03 22:10 | 37.61824 | -122.39022 | 29 ft | 3 kts | 173° |
| 2026-05-03 22:10 | 37.61843 | -122.39029 | 29 ft | 0 kts | 119° |
| 2026-05-03 22:12 | 37.61850 | -122.38988 | 25 ft | 14 kts | 50° |
| 2026-05-03 22:12 | 37.61951 | -122.39040 | 23 ft | 18 kts | 321° |
| 2026-05-03 22:12 | 37.62001 | -122.39121 | 22 ft | 0 kts | 306° |
| 2026-05-03 22:13 | 37.62025 | -122.39175 | 20 ft | 0 kts | 302° |
| 2026-05-03 22:13 | 37.62025 | -122.39176 | 21 ft | 3 kts | 301° |
| 2026-05-03 22:13 | 37.62158 | -122.39160 | 24 ft | 46 kts | 27° |
| 2026-05-03 22:14 | 37.62256 | -122.38896 | 20 ft | 31 kts | 108° |
| 2026-05-03 22:14 | 37.62079 | -122.38484 | 30 ft | 58 kts | 118° |
| 2026-05-03 22:14 | 37.61903 | -122.38052 | 27 ft | 54 kts | 118° |
| 2026-05-03 22:14 | 37.61768 | -122.37690 | 26 ft | 17 kts | 108° |
| 2026-05-03 22:15 | 37.61671 | -122.37401 | 30 ft | 48 kts | 117° |
| 2026-05-03 22:15 | 37.61521 | -122.37037 | 27 ft | 46 kts | 118° |
| 2026-05-03 22:15 | 37.61334 | -122.36700 | 28 ft | 50 kts | 120° |
| 2026-05-03 22:15 | 37.61253 | -122.36511 | 22 ft | 5 kts | 117° |
| 2026-05-03 22:16 | 37.61251 | -122.36505 | 22 ft | 0 kts | 117° |
| 2026-05-03 22:16 | 37.61204 | -122.36393 | 27 ft | 28 kts | 118° |
| 2026-05-03 22:16 | 37.61183 | -122.36344 | 26 ft | 0 kts | 118° |
| 2026-05-03 22:17 | 37.61182 | -122.36343 | 26 ft | 4 kts | 118° |
| 2026-05-03 22:17 | 37.61142 | -122.36249 | 26 ft | 0 kts | 118° |
| 2026-05-03 22:19 | 37.61133 | -122.36226 | 26 ft | 0 kts | 118° |
| 2026-05-03 22:19 | 37.61083 | -122.36191 | 26 ft | 29 kts | 134° |
| 2026-05-03 22:19 | 37.61113 | -122.35895 | 27 ft | 28 kts | 25° |
| 2026-05-03 22:19 | 37.61309 | -122.36163 | 24 ft | 91 kts | 298° |
| 2026-05-03 22:20 | 37.61782 | -122.37267 | 85 ft | 190 kts | 296° |
| 2026-05-03 22:20 | 37.62449 | -122.38871 | 1193 ft | 151 kts | 291° |
| 2026-05-03 22:20 | 37.62848 | -122.40059 | 3335 ft | 178 kts | 289° |
| 2026-05-03 22:20 | 37.63413 | -122.41839 | 3645 ft | 251 kts | 297° |
| 2026-05-03 22:21 | 37.65067 | -122.42899 | 3911 ft | 315 kts | 0° |
| 2026-05-03 22:21 | 37.66799 | -122.41608 | 4558 ft | 335 kts | 75° |
| 2026-05-03 22:21 | 37.66469 | -122.38615 | 4968 ft | 365 kts | 121° |
| 2026-05-03 22:21 | 37.65310 | -122.36047 | 7819 ft | 275 kts | 121° |
| 2026-05-03 22:22 | 37.64472 | -122.34095 | 10893 ft | 258 kts | 114° |
| 2026-05-03 22:22 | 37.64344 | -122.31687 | 11006 ft | 291 kts | 63° |
| 2026-05-03 22:22 | 37.65352 | -122.29430 | 11492 ft | 306 kts | 54° |
| 2026-05-03 22:22 | 37.66841 | -122.27282 | 11853 ft | 346 kts | 50° |
| 2026-05-03 22:23 | 37.68580 | -122.24977 | 12264 ft | 376 kts | 49° |
| 2026-05-03 22:23 | 37.70437 | -122.22497 | 12698 ft | 400 kts | 49° |
| 2026-05-03 22:23 | 37.72368 | -122.19917 | 13123 ft | 417 kts | 49° |
| 2026-05-03 22:23 | 37.74394 | -122.17210 | 13554 ft | 430 kts | 49° |
| 2026-05-03 22:24 | 37.76382 | -122.14349 | 13963 ft | 436 kts | 57° |
| 2026-05-03 22:24 | 37.77737 | -122.10935 | 14502 ft | 435 kts | 70° |
| 2026-05-03 22:24 | 37.78857 | -122.07374 | 15089 ft | 436 kts | 70° |
| 2026-05-03 22:24 | 37.80023 | -122.03825 | 15667 ft | 437 kts | 70° |
| 2026-05-03 22:25 | 37.81193 | -122.00269 | 16269 ft | 438 kts | 70° |
| 2026-05-03 22:25 | 37.82367 | -121.96702 | 16880 ft | 438 kts | 70° |
| 2026-05-03 22:25 | 37.83418 | -121.93103 | 17492 ft | 435 kts | 76° |
| 2026-05-03 22:25 | 37.84204 | -121.89413 | 18297 ft | 431 kts | 78° |
| 2026-05-03 22:26 | 37.84940 | -121.85749 | 19002 ft | 428 kts | 78° |
| 2026-05-03 22:26 | 37.85650 | -121.82121 | 19718 ft | 424 kts | 79° |
| 2026-05-03 22:26 | 37.86353 | -121.78500 | 20446 ft | 421 kts | 79° |
| 2026-05-03 22:26 | 37.87045 | -121.74919 | 21201 ft | 418 kts | 79° |
| 2026-05-03 22:27 | 37.87734 | -121.71359 | 21980 ft | 414 kts | 79° |
| 2026-05-03 22:27 | 37.88415 | -121.67838 | 22779 ft | 410 kts | 79° |
| 2026-05-03 22:27 | 37.89089 | -121.64351 | 23590 ft | 406 kts | 79° |
| 2026-05-03 22:27 | 37.89760 | -121.60947 | 24323 ft | 400 kts | 78° |
| 2026-05-03 22:28 | 37.90458 | -121.57525 | 25170 ft | 392 kts | 78° |
| 2026-05-03 22:28 | 37.91132 | -121.54271 | 26018 ft | 384 kts | 78° |
| 2026-05-03 22:28 | 37.91809 | -121.51020 | 26898 ft | 376 kts | 78° |
| 2026-05-03 22:28 | 37.92466 | -121.47852 | 27800 ft | 367 kts | 78° |
| 2026-05-03 22:29 | 37.93104 | -121.44759 | 28725 ft | 358 kts | 78° |
| 2026-05-03 22:29 | 37.93722 | -121.41745 | 29685 ft | 349 kts | 78° |
| 2026-05-03 22:29 | 37.94323 | -121.38814 | 30554 ft | 339 kts | 78° |
| 2026-05-03 22:29 | 37.94910 | -121.35961 | 31395 ft | 329 kts | 78° |
| 2026-05-03 22:30 | 37.95487 | -121.33201 | 32225 ft | 318 kts | 78° |
| 2026-05-03 22:30 | 37.96047 | -121.30551 | 33085 ft | 305 kts | 79° |
| 2026-05-03 22:30 | 37.96563 | -121.27991 | 33760 ft | 299 kts | 79° |
| 2026-05-03 22:30 | 37.97072 | -121.25373 | 33746 ft | 314 kts | 79° |
| 2026-05-03 22:31 | 37.97598 | -121.22581 | 33543 ft | 333 kts | 79° |
| 2026-05-03 22:31 | 37.98124 | -121.19767 | 34008 ft | 328 kts | 80° |
| 2026-05-03 22:31 | 37.98644 | -121.17012 | 34683 ft | 316 kts | 79° |
| 2026-05-03 22:31 | 37.99157 | -121.14304 | 34947 ft | 320 kts | 80° |
| 2026-05-03 22:32 | 37.99685 | -121.11480 | 34745 ft | 339 kts | 80° |
| 2026-05-03 22:32 | 38.00793 | -121.05480 | 34898 ft | 355 kts | 80° |
| 2026-05-03 22:33 | 38.01880 | -120.99212 | 35032 ft | 373 kts | 81° |
| 2026-05-03 22:33 | 38.02904 | -120.92650 | 35103 ft | 390 kts | 82° |
| 2026-05-03 22:34 | 38.03948 | -120.85750 | 35159 ft | 406 kts | 82° |
| 2026-05-03 22:34 | 38.05022 | -120.78570 | 35206 ft | 420 kts | 82° |
| 2026-05-03 22:35 | 38.06112 | -120.71229 | 35240 ft | 432 kts | 82° |
| 2026-05-03 22:35 | 38.07236 | -120.63621 | 35278 ft | 443 kts | 82° |
| 2026-05-03 22:36 | 38.08377 | -120.55871 | 35322 ft | 451 kts | 82° |
| 2026-05-03 22:36 | 38.09530 | -120.48026 | 35346 ft | 458 kts | 82° |
| 2026-05-03 22:37 | 38.10702 | -120.40036 | 35381 ft | 463 kts | 82° |
| 2026-05-03 22:37 | 38.11870 | -120.31953 | 35411 ft | 467 kts | 82° |
| 2026-05-03 22:38 | 38.13032 | -120.23800 | 35452 ft | 470 kts | 82° |
| 2026-05-03 22:38 | 38.14200 | -120.15610 | 35485 ft | 472 kts | 82° |
| 2026-05-03 22:39 | 38.15371 | -120.07376 | 35525 ft | 474 kts | 81° |
| 2026-05-03 22:39 | 38.16513 | -119.99141 | 35564 ft | 474 kts | 82° |
| 2026-05-03 22:40 | 38.17657 | -119.90914 | 35613 ft | 475 kts | 82° |
| 2026-05-03 22:40 | 38.18805 | -119.82647 | 35656 ft | 476 kts | 82° |
| 2026-05-03 22:41 | 38.19956 | -119.74328 | 35701 ft | 478 kts | 82° |
| 2026-05-03 22:41 | 38.21117 | -119.65971 | 35778 ft | 481 kts | 81° |
| 2026-05-03 22:42 | 38.22282 | -119.57578 | 35808 ft | 483 kts | 82° |
| 2026-05-03 22:42 | 38.23453 | -119.49138 | 35828 ft | 485 kts | 82° |
| 2026-05-03 22:43 | 38.24637 | -119.40672 | 35867 ft | 487 kts | 81° |
| 2026-05-03 22:43 | 38.25821 | -119.32169 | 35893 ft | 489 kts | 82° |
| 2026-05-03 22:44 | 38.27012 | -119.23634 | 35891 ft | 490 kts | 81° |
| 2026-05-03 22:44 | 38.28216 | -119.15092 | 35954 ft | 491 kts | 81° |
| 2026-05-03 22:45 | 38.29424 | -119.06515 | 35980 ft | 492 kts | 82° |
| 2026-05-03 22:45 | 38.30631 | -118.97992 | 36017 ft | 493 kts | 81° |
| 2026-05-03 22:46 | 38.31859 | -118.89375 | 36043 ft | 494 kts | 82° |
| 2026-05-03 22:46 | 38.33100 | -118.80748 | 36102 ft | 495 kts | 81° |
| 2026-05-03 22:47 | 38.34347 | -118.72119 | 36161 ft | 496 kts | 81° |
| 2026-05-03 22:47 | 38.35596 | -118.63504 | 36217 ft | 497 kts | 81° |
| 2026-05-03 22:48 | 38.36858 | -118.54838 | 36263 ft | 498 kts | 81° |
| 2026-05-03 22:48 | 38.38126 | -118.46138 | 36317 ft | 499 kts | 81° |
| 2026-05-03 22:49 | 38.39393 | -118.37418 | 36336 ft | 500 kts | 81° |
| 2026-05-03 22:49 | 38.40667 | -118.28711 | 36357 ft | 500 kts | 82° |
| 2026-05-03 22:50 | 38.41962 | -118.19973 | 36378 ft | 501 kts | 82° |
| 2026-05-03 22:50 | 38.43251 | -118.11287 | 36410 ft | 502 kts | 81° |
| 2026-05-03 22:51 | 38.44542 | -118.02515 | 36451 ft | 503 kts | 81° |
| 2026-05-03 22:51 | 38.45794 | -117.93719 | 36514 ft | 505 kts | 81° |
| 2026-05-03 22:52 | 38.46918 | -117.84842 | 36547 ft | 506 kts | 83° |
| 2026-05-03 22:52 | 38.47864 | -117.75947 | 36617 ft | 507 kts | 84° |
| 2026-05-03 22:53 | 38.48781 | -117.67009 | 36679 ft | 508 kts | 84° |
| 2026-05-03 22:53 | 38.49691 | -117.58064 | 36735 ft | 509 kts | 84° |
| 2026-05-03 22:54 | 38.50603 | -117.49091 | 36781 ft | 510 kts | 84° |
| 2026-05-03 22:54 | 38.51518 | -117.40165 | 36850 ft | 510 kts | 84° |
| 2026-05-03 22:55 | 38.52167 | -117.31161 | 36905 ft | 508 kts | 91° |
| 2026-05-03 22:55 | 38.52169 | -117.22152 | 36961 ft | 508 kts | 92° |
| 2026-05-03 22:56 | 38.52078 | -117.13125 | 37007 ft | 508 kts | 93° |
| 2026-05-03 22:56 | 38.51976 | -117.04082 | 37062 ft | 508 kts | 93° |
| 2026-05-03 22:57 | 38.51878 | -116.95053 | 37106 ft | 509 kts | 93° |
| 2026-05-03 22:57 | 38.51808 | -116.86003 | 37163 ft | 510 kts | 93° |
| 2026-05-03 22:58 | 38.51747 | -116.76914 | 37221 ft | 511 kts | 93° |
| 2026-05-03 22:58 | 38.51691 | -116.67867 | 37271 ft | 512 kts | 93° |
| 2026-05-03 22:59 | 38.51647 | -116.60290 | 37315 ft | 513 kts | 93° |
| 2026-05-03 22:59 | 38.51595 | -116.51166 | 37367 ft | 514 kts | 93° |
| 2026-05-03 23:00 | 38.51538 | -116.40542 | 37401 ft | 515 kts | 93° |
| 2026-05-03 23:00 | 38.51501 | -116.32934 | 37453 ft | 515 kts | 93° |
| 2026-05-03 23:01 | 38.51460 | -116.23788 | 37485 ft | 515 kts | 93° |
| 2026-05-03 23:01 | 38.51422 | -116.14616 | 37536 ft | 516 kts | 93° |
| 2026-05-03 23:02 | 38.51254 | -116.05438 | 37567 ft | 517 kts | 94° |
| 2026-05-03 23:02 | 38.51015 | -115.96243 | 37618 ft | 518 kts | 95° |
| 2026-05-03 23:03 | 38.50771 | -115.87080 | 37660 ft | 520 kts | 95° |
| 2026-05-03 23:03 | 38.50526 | -115.77836 | 37704 ft | 521 kts | 95° |
| 2026-05-03 23:04 | 38.50288 | -115.68581 | 37762 ft | 522 kts | 95° |
| 2026-05-03 23:04 | 38.50050 | -115.59306 | 37812 ft | 522 kts | 95° |
| 2026-05-03 23:05 | 38.49811 | -115.50030 | 37877 ft | 523 kts | 95° |
| 2026-05-03 23:05 | 38.49575 | -115.40755 | 37904 ft | 523 kts | 95° |
| 2026-05-03 23:06 | 38.49333 | -115.31459 | 37946 ft | 524 kts | 95° |
| 2026-05-03 23:06 | 38.49136 | -115.23113 | 37990 ft | 525 kts | 95° |
| 2026-05-03 23:07 | 38.48921 | -115.13834 | 38066 ft | 526 kts | 94° |
| 2026-05-03 23:07 | 38.48708 | -115.04485 | 38128 ft | 527 kts | 94° |
| 2026-05-03 23:08 | 38.48501 | -114.95146 | 38215 ft | 527 kts | 94° |
| 2026-05-03 23:08 | 38.48304 | -114.85751 | 38248 ft | 528 kts | 94° |
| 2026-05-03 23:09 | 38.48113 | -114.76379 | 38303 ft | 529 kts | 94° |
| 2026-05-03 23:09 | 38.47926 | -114.67055 | 38350 ft | 529 kts | 94° |
| 2026-05-03 23:10 | 38.47742 | -114.57655 | 38412 ft | 530 kts | 94° |
| 2026-05-03 23:10 | 38.47560 | -114.48227 | 38444 ft | 530 kts | 94° |
| 2026-05-03 23:11 | 38.47382 | -114.38799 | 38501 ft | 532 kts | 94° |
| 2026-05-03 23:11 | 38.47070 | -114.29390 | 38550 ft | 530 kts | 97° |
| 2026-05-03 23:12 | 38.46510 | -114.19993 | 38562 ft | 531 kts | 98° |
| 2026-05-03 23:12 | 38.45916 | -114.10601 | 38604 ft | 531 kts | 98° |
| 2026-05-03 23:13 | 38.45319 | -114.01263 | 38657 ft | 531 kts | 98° |
| 2026-05-03 23:13 | 38.44730 | -113.91857 | 38716 ft | 532 kts | 98° |
| 2026-05-03 23:14 | 38.44145 | -113.82433 | 38738 ft | 533 kts | 98° |
| 2026-05-03 23:14 | 38.43558 | -113.73004 | 38775 ft | 533 kts | 98° |
| 2026-05-03 23:15 | 38.42976 | -113.63639 | 38801 ft | 533 kts | 98° |
| 2026-05-03 23:15 | 38.42405 | -113.54197 | 38828 ft | 535 kts | 98° |
| 2026-05-03 23:16 | 38.41825 | -113.44725 | 38818 ft | 536 kts | 98° |
| 2026-05-03 23:16 | 38.41251 | -113.35217 | 38853 ft | 538 kts | 98° |
| 2026-05-03 23:17 | 38.40676 | -113.25690 | 38892 ft | 540 kts | 98° |
| 2026-05-03 23:17 | 38.40103 | -113.16151 | 38920 ft | 541 kts | 98° |
| 2026-05-03 23:18 | 38.39533 | -113.06563 | 38929 ft | 542 kts | 98° |
| 2026-05-03 23:18 | 38.38957 | -112.96981 | 38936 ft | 542 kts | 98° |
| 2026-05-03 23:19 | 38.38378 | -112.87379 | 38932 ft | 544 kts | 98° |
| 2026-05-03 23:19 | 38.37804 | -112.77830 | 38884 ft | 545 kts | 97° |
| 2026-05-03 23:20 | 38.37211 | -112.68200 | 38893 ft | 545 kts | 98° |
| 2026-05-03 23:20 | 38.36615 | -112.58570 | 38891 ft | 545 kts | 98° |
| 2026-05-03 23:21 | 38.36021 | -112.48943 | 38901 ft | 546 kts | 97° |
| 2026-05-03 23:21 | 38.35341 | -112.39306 | 38883 ft | 545 kts | 100° |
| 2026-05-03 23:22 | 38.33799 | -112.24954 | 38897 ft | 545 kts | 101° |
| 2026-05-03 23:22 | 38.32722 | -112.15462 | 38905 ft | 544 kts | 102° |
| 2026-05-03 23:23 | 38.31645 | -112.05902 | 38927 ft | 546 kts | 101° |
| 2026-05-03 23:23 | 38.30560 | -111.96331 | 38950 ft | 547 kts | 101° |
| 2026-05-03 23:24 | 38.29467 | -111.86710 | 38922 ft | 549 kts | 102° |
| 2026-05-03 23:24 | 38.28886 | -111.81880 | 38507 ft | 560 kts | 102° |
| 2026-05-03 23:24 | 38.28273 | -111.76926 | 38005 ft | 568 kts | 102° |
| 2026-05-03 23:25 | 38.27642 | -111.71918 | 37539 ft | 576 kts | 102° |
| 2026-05-03 23:25 | 38.27002 | -111.66857 | 37173 ft | 580 kts | 102° |
| 2026-05-03 23:25 | 38.26362 | -111.61794 | 37027 ft | 579 kts | 102° |
| 2026-05-03 23:25 | 38.25788 | -111.56740 | 36967 ft | 578 kts | 99° |
| 2026-05-03 23:26 | 38.25014 | -111.46590 | 36925 ft | 574 kts | 97° |
| 2026-05-03 23:26 | 38.24355 | -111.36564 | 36875 ft | 570 kts | 97° |
| 2026-05-03 23:27 | 38.23748 | -111.26528 | 36863 ft | 568 kts | 97° |
| 2026-05-03 23:27 | 38.23154 | -111.16528 | 36903 ft | 566 kts | 97° |
| 2026-05-03 23:28 | 38.22557 | -111.06537 | 36845 ft | 565 kts | 97° |
| 2026-05-03 23:28 | 38.21947 | -110.96638 | 36854 ft | 564 kts | 97° |
| 2026-05-03 23:29 | 38.21343 | -110.86714 | 36877 ft | 562 kts | 97° |
| 2026-05-03 23:29 | 38.20742 | -110.76813 | 36880 ft | 562 kts | 97° |
| 2026-05-03 23:30 | 38.20111 | -110.66912 | 36871 ft | 560 kts | 97° |
| 2026-05-03 23:30 | 38.19404 | -110.57058 | 36827 ft | 559 kts | 98° |
| 2026-05-03 23:31 | 38.18683 | -110.47198 | 36807 ft | 560 kts | 98° |
| 2026-05-03 23:31 | 38.17953 | -110.37353 | 36824 ft | 561 kts | 98° |
| 2026-05-03 23:32 | 38.17211 | -110.27471 | 36830 ft | 562 kts | 98° |
| 2026-05-03 23:32 | 38.16476 | -110.17568 | 36856 ft | 563 kts | 98° |